Terminal Aerodrome Forecast
Issued by NWS Wilmington, NC

Home | Current Version | Previous Version | Text Only | Print | Product List | Glossary On
Versions: 1 2 3 4 5 6 7 8 9 10 11 12 13 14 15 16 17 18 19 20 21 22 23 24 25 26 27 28 29 30 31 32 33 34 35 36 37 38 39 40 41 42 43 44 45 46 47 48 49 50
000
FTUS42 KILM 201059 AAC
TAFLBT
TAF AMD
KLBT 201059Z 2011/2106 22014G25KT P6SM BKN015
     FM201400 23013G25KT P6SM OVC035
     FM201500 27013G25KT P6SM BKN040
     FM202200 30015G25KT P6SM SKC=

USA.gov is the U.S. government's official web portal to all federal, state and local government web resources and services.